weather.gov     
National Weather Service

Terminal Aerodrome Forecast
NWS Homepage
This page is being discontinued on March 12, 2014.
The same data is available at this site. Please update your bookmarks.
Thank you, and we apologize for the inconvenience.
Please send an email to SR-SRH.Webmaster@noaa.gov with any concerns.


Current Version
Previous Version:    01  02  03  04  05  06  07  08  09  10  11  12  13  14  
[Printable]
004
FTUS41 KCAR 260200 AAB
TAFHUL
TAF AMD
KHUL 260204Z 2602/2624 VRB02KT 2SM BR BKN005 BKN050
     FM260600 13005KT 5SM -SHRA BKN008 OVC015
     FM260900 VRB02KT 3SM -SHRA BR OVC005
     FM261400 VRB02KT 5SM -SHRA OVC010
     FM261500 VRB02KT 5SM -SHRA OVC015
     FM261900 26004KT P6SM OVC025=


U.S. Dept. of Commerce
NOAA National Weather Service
1325 East West Highway
Silver Spring, MD 20910
E-mail: w-nws.webmaster@noaa.gov
Page last modified: May 16, 2007
NATIONAL WEATHER SERVICE: for Safety, for Work, for Fun - FOR LIFE